Terminal Aerodrome Forecast
Issued by NWS

Home | Current Version | Previous Version | Text Only | Print | Product List | Glossary On
Versions: 1 2 3 4 5 6 7 8 9 10 11 12 13 14 15 16 17
975
FTUS46 KSGX 200546
TAFSNA
TAF
KSNA 200546Z 2006/2106 23005KT 6SM -RA BR BKN030
     FM201300 14012G22KT 5SM -RA BR BKN020
     FM201800 18018G28KT 4SM RA SCT008 OVC015
     FM210000 26015G25KT 6SM -SHRA SCT015 BKN025=

USA.gov is the U.S. government's official web portal to all federal, state and local government web resources and services.